createdAt,value
2018-12-04T00:01:27.872Z,12.67
2018-12-04T00:03:55.586Z,8.70
2018-12-04T00:06:23.223Z,9.17
2018-12-04T00:08:51.048Z,10.73
2018-12-04T00:11:18.603Z,8.17
2018-12-04T00:13:46.120Z,8.83
2018-12-04T00:16:13.574Z,10.20
2018-12-04T00:18:41.006Z,6.83
2018-12-04T00:21:08.594Z,7.63
2018-12-04T00:23:36.168Z,6.50
2018-12-04T00:26:03.809Z,7.07
2018-12-04T00:28:31.360Z,8.40
2018-12-04T00:30:58.978Z,10.07
2018-12-04T00:33:26.562Z,5.87
2018-12-04T00:35:54.197Z,6.17
2018-12-04T00:38:21.734Z,8.80
2018-12-04T00:40:49.284Z,4.70
2018-12-04T00:43:16.805Z,9.33
2018-12-04T00:45:44.441Z,6.40
2018-12-04T00:48:12.162Z,6.20
2018-12-04T00:50:39.902Z,7.33
2018-12-04T00:53:08.859Z,6.73
2018-12-04T00:55:39.437Z,5.57
2018-12-04T00:58:07.360Z,5.07
2018-12-04T01:00:35.163Z,7.63
2018-12-04T01:03:03.215Z,7.50
2018-12-04T01:05:30.796Z,4.90
2018-12-04T01:07:58.293Z,6.93
2018-12-04T01:10:25.829Z,5.70
2018-12-04T01:12:53.438Z,5.47
2018-12-04T01:15:21.182Z,4.10
2018-12-04T01:17:48.811Z,8.90
2018-12-04T01:20:16.564Z,4.73
2018-12-04T01:22:44.132Z,8.80
2018-12-04T01:25:11.785Z,3.83
2018-12-04T01:27:39.486Z,5.47
2018-12-04T01:30:07.091Z,4.17
2018-12-04T01:32:34.897Z,5.73
2018-12-04T01:35:02.441Z,6.13
2018-12-04T01:37:29.996Z,5.23
2018-12-04T01:39:57.559Z,8.63
2018-12-04T01:42:25.442Z,5.40
2018-12-04T01:44:53.048Z,5.43
2018-12-04T01:47:20.556Z,8.60
2018-12-04T01:49:48.234Z,6.47
2018-12-04T01:52:15.830Z,6.37
2018-12-04T01:54:43.290Z,6.27
2018-12-04T01:57:10.829Z,6.27
2018-12-04T01:59:38.385Z,5.57
2018-12-04T02:02:05.832Z,7.97
2018-12-04T02:04:33.584Z,8.17
2018-12-04T02:07:01.060Z,8.63
2018-12-04T02:09:28.536Z,12.00
2018-12-04T02:11:56.134Z,8.87
2018-12-04T02:14:23.777Z,8.63
2018-12-04T02:16:51.392Z,8.30
2018-12-04T02:19:18.992Z,6.83
2018-12-04T02:21:46.466Z,6.40
2018-12-04T02:24:14.056Z,10.70
2018-12-04T02:26:41.616Z,9.10
2018-12-04T02:29:09.189Z,5.57
2018-12-04T02:31:36.835Z,7.30
2018-12-04T02:34:04.637Z,9.07
2018-12-04T02:36:32.347Z,12.57
2018-12-04T02:39:00.069Z,5.67
2018-12-04T02:41:27.744Z,6.47
2018-12-04T02:43:55.323Z,4.77
2018-12-04T02:46:22.957Z,7.00
2018-12-04T02:48:50.376Z,8.40
2018-12-04T02:51:17.936Z,6.07
2018-12-04T02:53:45.871Z,6.67
2018-12-04T02:56:13.420Z,6.43
2018-12-04T02:58:41.076Z,3.87
2018-12-04T03:01:08.664Z,8.70
2018-12-04T03:03:36.180Z,6.93
2018-12-04T03:06:03.809Z,7.93
2018-12-04T03:08:31.407Z,6.83
2018-12-04T03:10:59.137Z,6.30
2018-12-04T03:13:26.764Z,9.83
2018-12-04T03:15:54.420Z,4.80
2018-12-04T03:18:22.045Z,5.97
2018-12-04T03:20:49.550Z,7.53
2018-12-04T03:23:17.264Z,7.17
2018-12-04T03:25:44.786Z,9.17
2018-12-04T03:28:12.328Z,6.50
2018-12-04T03:30:40.028Z,5.77
2018-12-04T03:33:07.763Z,7.13
2018-12-04T03:35:35.364Z,10.50
2018-12-04T03:38:03.151Z,7.77
2018-12-04T03:40:31.226Z,10.93
2018-12-04T03:42:58.982Z,10.67
2018-12-04T03:45:26.550Z,9.97
2018-12-04T03:47:54.107Z,9.37
2018-12-04T03:50:22.076Z,6.63
2018-12-04T03:52:49.521Z,12.97
2018-12-04T03:55:17.101Z,6.80
2018-12-04T03:57:44.810Z,11.00
2018-12-04T04:00:12.471Z,13.40
2018-12-04T04:02:40.042Z,11.87
2018-12-04T04:05:07.627Z,10.57
2018-12-04T04:07:35.359Z,10.13
2018-12-04T04:10:03.874Z,11.97
2018-12-04T04:12:31.456Z,9.77
2018-12-04T04:14:59.102Z,9.97
2018-12-04T04:17:26.659Z,9.50
2018-12-04T04:19:54.124Z,10.03
2018-12-04T04:22:21.635Z,9.60
2018-12-04T04:24:49.194Z,15.90
2018-12-04T04:27:16.854Z,9.10
2018-12-04T04:29:44.429Z,13.70
2018-12-04T04:32:11.915Z,13.37
2018-12-04T04:34:39.486Z,14.20
2018-12-04T04:37:07.136Z,12.80
2018-12-04T04:39:34.906Z,13.00
2018-12-04T04:42:03.607Z,8.80
2018-12-04T04:44:31.227Z,9.10
2018-12-04T04:46:58.923Z,16.10
2018-12-04T04:49:26.474Z,11.00
2018-12-04T04:51:54.075Z,14.47
2018-12-04T04:54:21.623Z,13.00
2018-12-04T04:56:49.191Z,10.23
2018-12-04T04:59:16.841Z,13.87
2018-12-04T05:01:44.522Z,10.33
2018-12-04T05:04:12.376Z,11.03
2018-12-04T05:06:40.083Z,11.47
2018-12-04T05:09:07.620Z,7.90
2018-12-04T05:11:35.107Z,9.17
2018-12-04T05:14:02.742Z,12.83
2018-12-04T05:16:30.344Z,16.30
2018-12-04T05:18:58.233Z,13.60
2018-12-04T05:21:26.121Z,9.13
2018-12-04T05:23:53.687Z,18.53
2018-12-04T05:26:21.287Z,10.43
2018-12-04T05:28:48.853Z,13.73
2018-12-04T05:31:16.350Z,11.00
2018-12-04T05:33:44.013Z,12.77
2018-12-04T05:36:11.767Z,10.33
2018-12-04T05:38:39.332Z,16.10
2018-12-04T05:41:06.855Z,8.97
2018-12-04T05:43:34.385Z,9.60
2018-12-04T05:46:02.063Z,8.90
2018-12-04T05:48:29.614Z,12.63
2018-12-04T05:50:57.063Z,10.90
2018-12-04T05:53:33.791Z,8.73
2018-12-04T05:56:01.380Z,11.57
2018-12-04T05:58:29.291Z,5.07
2018-12-04T06:00:57.364Z,13.87
2018-12-04T06:03:24.982Z,13.63
2018-12-04T06:05:52.659Z,10.47
2018-12-04T06:08:20.148Z,13.97
2018-12-04T06:10:48.765Z,15.83
2018-12-04T06:13:16.612Z,13.10
2018-12-04T06:15:44.379Z,9.60
2018-12-04T06:18:11.972Z,8.80
2018-12-04T06:20:39.648Z,11.23
2018-12-04T06:23:07.547Z,9.50
2018-12-04T06:25:35.269Z,11.57
2018-12-04T06:28:02.842Z,10.27
2018-12-04T06:30:30.388Z,9.40
2018-12-04T06:32:58.152Z,10.37
2018-12-04T06:35:26.082Z,9.63
2018-12-04T06:37:53.616Z,11.10
2018-12-04T06:40:21.195Z,11.97
2018-12-04T06:42:48.772Z,13.10
2018-12-04T06:45:16.380Z,10.37
2018-12-04T06:47:44.120Z,10.97
2018-12-04T06:50:11.767Z,8.60
2018-12-04T06:52:39.356Z,7.00
2018-12-04T06:55:08.033Z,9.87
2018-12-04T06:57:35.911Z,9.17
2018-12-04T07:00:05.306Z,7.80
2018-12-04T07:02:33.170Z,10.30
2018-12-04T07:05:00.556Z,10.87
2018-12-04T07:07:28.092Z,9.87
2018-12-04T07:09:55.642Z,5.67
2018-12-04T07:12:23.175Z,11.87
2018-12-04T07:14:50.820Z,10.03
2018-12-04T07:17:18.805Z,5.23
2018-12-04T07:19:46.463Z,6.47
2018-12-04T07:22:14.155Z,8.77
2018-12-04T07:24:41.709Z,5.77
2018-12-04T07:27:09.326Z,12.77
2018-12-04T07:29:36.783Z,7.47
2018-12-04T07:32:04.278Z,5.93
2018-12-04T07:34:31.965Z,9.53
2018-12-04T07:36:59.548Z,5.17
2018-12-04T07:39:27.191Z,10.77
2018-12-04T07:41:54.924Z,10.07
2018-12-04T07:44:22.502Z,12.40
2018-12-04T07:46:50.092Z,10.47
2018-12-04T07:49:17.601Z,8.47
2018-12-04T07:51:45.602Z,12.37
2018-12-04T07:54:13.504Z,11.43
2018-12-04T07:56:41.101Z,12.07
2018-12-04T07:59:08.599Z,9.00
2018-12-04T08:01:36.688Z,15.27
2018-12-04T08:04:04.301Z,14.17
2018-12-04T08:06:31.997Z,9.93
2018-12-04T08:08:59.456Z,12.90
2018-12-04T08:11:27.214Z,11.10
2018-12-04T08:13:54.743Z,9.20
2018-12-04T08:16:22.475Z,10.73
2018-12-04T08:18:49.992Z,13.03
2018-12-04T08:21:17.801Z,10.40
2018-12-04T08:23:45.545Z,13.20
2018-12-04T08:26:13.123Z,12.20
2018-12-04T08:28:40.682Z,8.37
2018-12-04T08:31:08.270Z,7.27
2018-12-04T08:33:35.778Z,11.90
2018-12-04T08:36:03.595Z,6.87
2018-12-04T08:38:31.138Z,11.10
2018-12-04T08:40:58.634Z,6.50
2018-12-04T08:43:26.182Z,9.00
2018-12-04T08:45:53.701Z,8.10
2018-12-04T08:48:21.260Z,10.13
2018-12-04T08:50:48.800Z,8.90
2018-12-04T08:53:16.322Z,9.60
2018-12-04T08:55:43.850Z,6.53
2018-12-04T08:58:11.438Z,7.67
2018-12-04T09:00:38.946Z,10.90
2018-12-04T09:03:06.462Z,9.87
2018-12-04T09:05:33.985Z,11.73
2018-12-04T09:08:01.561Z,8.47
2018-12-04T09:10:29.332Z,13.30
2018-12-04T09:12:57.242Z,12.17
2018-12-04T09:15:25.635Z,7.33
2018-12-04T09:17:53.064Z,12.60
2018-12-04T09:20:20.606Z,8.43
2018-12-04T09:22:48.129Z,11.03
2018-12-04T09:25:15.806Z,7.60
2018-12-04T09:27:43.513Z,10.07
2018-12-04T09:30:12.135Z,9.13
2018-12-04T09:32:39.819Z,8.30
2018-12-04T09:35:07.363Z,7.17
2018-12-04T09:37:34.864Z,10.60
2018-12-04T09:40:02.496Z,10.80
2018-12-04T09:42:30.288Z,7.53
2018-12-04T09:44:57.927Z,9.63
2018-12-04T09:47:25.508Z,7.63
2018-12-04T09:49:53.094Z,15.00
2018-12-04T09:52:20.607Z,10.73
2018-12-04T09:54:48.138Z,8.80
2018-12-04T09:57:15.714Z,9.27
2018-12-04T09:59:43.598Z,9.87
2018-12-04T10:02:11.107Z,7.63
2018-12-04T10:04:38.692Z,11.83
2018-12-04T10:07:06.185Z,9.87
2018-12-04T10:09:33.705Z,9.50
2018-12-04T10:12:01.459Z,6.03
2018-12-04T10:14:28.937Z,8.13
2018-12-04T10:16:56.618Z,11.33
2018-12-04T10:19:24.323Z,10.17
2018-12-04T10:21:52.085Z,8.80
2018-12-04T10:24:19.806Z,10.03
2018-12-04T10:26:52.041Z,10.07
2018-12-04T10:29:19.685Z,11.97
2018-12-04T10:31:47.254Z,10.43
2018-12-04T10:34:14.904Z,8.43
2018-12-04T10:36:42.480Z,6.87
2018-12-04T10:39:10.154Z,8.43
2018-12-04T10:41:38.090Z,10.53
2018-12-04T10:44:05.864Z,9.73
2018-12-04T10:46:33.424Z,8.90
2018-12-04T10:49:00.980Z,9.77
2018-12-04T10:51:28.635Z,12.43
2018-12-04T10:53:56.411Z,12.00
2018-12-04T10:56:24.097Z,11.27
2018-12-04T10:58:51.688Z,11.73
2018-12-04T11:01:26.945Z,9.73
2018-12-04T11:03:54.492Z,13.67
2018-12-04T11:06:22.113Z,11.67
2018-12-04T11:08:49.991Z,10.00
2018-12-04T11:11:17.711Z,16.73
2018-12-04T11:13:45.371Z,12.10
2018-12-04T11:16:13.049Z,18.40
2018-12-04T11:18:40.559Z,14.67
2018-12-04T11:21:08.137Z,10.30
2018-12-04T11:23:35.720Z,11.17
2018-12-04T11:26:03.451Z,10.40
2018-12-04T11:28:31.032Z,13.53
2018-12-04T11:30:58.623Z,12.27
2018-12-04T11:33:26.232Z,12.97
2018-12-04T11:35:53.765Z,15.87
2018-12-04T11:38:21.330Z,15.70
2018-12-04T11:40:48.939Z,9.90
2018-12-04T11:43:16.471Z,16.60
2018-12-04T11:45:44.040Z,15.60
2018-12-04T11:48:11.597Z,14.10
2018-12-04T11:50:39.215Z,13.87
2018-12-04T11:53:06.669Z,13.83
2018-12-04T11:55:34.192Z,12.27
2018-12-04T11:58:01.925Z,13.80
2018-12-04T12:00:33.832Z,11.53
2018-12-04T12:03:01.804Z,15.30
2018-12-04T12:05:29.534Z,10.77
2018-12-04T12:07:57.106Z,10.53
2018-12-04T12:10:25.207Z,14.97
2018-12-04T12:12:52.744Z,12.40
2018-12-04T12:15:20.312Z,8.47
2018-12-04T12:17:47.950Z,12.13
2018-12-04T12:20:15.508Z,16.10
2018-12-04T12:22:43.123Z,13.47
2018-12-04T12:25:10.871Z,11.23
2018-12-04T12:27:38.513Z,12.40
2018-12-04T12:30:08.509Z,11.17
2018-12-04T12:32:36.067Z,16.27
2018-12-04T12:35:04.223Z,12.83
2018-12-04T12:37:31.839Z,12.97
2018-12-04T12:39:59.451Z,18.57
2018-12-04T12:42:27.120Z,10.70
2018-12-04T12:44:54.679Z,13.60
2018-12-04T12:47:22.332Z,14.57
2018-12-04T12:49:49.927Z,15.20
2018-12-04T12:52:17.629Z,11.70
2018-12-04T12:54:45.191Z,10.70
2018-12-04T12:57:12.769Z,16.20
2018-12-04T12:59:40.399Z,12.87
2018-12-04T13:02:07.937Z,12.47
2018-12-04T13:04:35.675Z,17.00
2018-12-04T13:07:03.470Z,14.27
2018-12-04T13:09:31.087Z,11.47
2018-12-04T13:11:58.859Z,10.40
2018-12-04T13:14:26.453Z,10.17
2018-12-04T13:16:55.149Z,17.20
2018-12-04T13:19:22.895Z,13.33
2018-12-04T13:21:50.460Z,7.23
2018-12-04T13:24:18.045Z,14.37
2018-12-04T13:26:45.843Z,16.10
2018-12-04T13:29:13.408Z,16.93
2018-12-04T13:31:40.932Z,16.70
2018-12-04T13:34:08.738Z,12.83
2018-12-04T13:36:36.343Z,12.67
2018-12-04T13:39:07.628Z,13.03
2018-12-04T13:41:35.393Z,13.07
2018-12-04T13:44:03.072Z,13.83
2018-12-04T13:46:30.604Z,10.77
2018-12-04T13:48:58.031Z,10.93
2018-12-04T13:51:25.640Z,18.97
2018-12-04T13:53:53.287Z,13.47
2018-12-04T13:56:22.465Z,14.37
2018-12-04T13:58:50.467Z,10.73
2018-12-04T14:01:18.026Z,11.80
2018-12-04T14:03:45.754Z,15.30
2018-12-04T14:06:13.581Z,10.67
2018-12-04T14:08:41.339Z,14.50
2018-12-04T14:11:08.967Z,12.47
2018-12-04T14:13:36.518Z,12.50
2018-12-04T14:16:04.086Z,14.00
2018-12-04T14:18:32.015Z,13.07
2018-12-04T14:20:59.666Z,11.97
2018-12-04T14:23:27.229Z,11.10
2018-12-04T14:25:54.939Z,13.17
2018-12-04T14:28:22.815Z,12.00
2018-12-04T14:30:50.423Z,15.33
2018-12-04T14:33:17.988Z,14.60
2018-12-04T14:35:46.139Z,14.97
2018-12-04T14:38:13.822Z,11.83
2018-12-04T14:40:41.459Z,15.57
2018-12-04T14:43:09.075Z,9.50
2018-12-04T14:45:36.786Z,14.27
2018-12-04T14:48:04.343Z,11.63
2018-12-04T14:50:32.021Z,11.37
2018-12-04T14:52:59.682Z,11.70
2018-12-04T14:55:27.309Z,18.87
2018-12-04T14:57:55.280Z,14.10
2018-12-04T15:00:23.028Z,13.40
2018-12-04T15:02:50.600Z,15.43
2018-12-04T15:05:18.360Z,13.00
2018-12-04T15:07:46.026Z,9.03
2018-12-04T15:10:13.965Z,12.63
2018-12-04T15:12:48.159Z,16.27
2018-12-04T15:15:15.796Z,13.53
2018-12-04T15:17:43.321Z,13.37
2018-12-04T15:20:11.072Z,8.77
2018-12-04T15:22:38.745Z,12.30
2018-12-04T15:25:06.491Z,14.07
2018-12-04T15:27:34.068Z,11.90
2018-12-04T15:30:01.737Z,13.83
2018-12-04T15:32:29.438Z,17.73
2018-12-04T15:34:56.982Z,12.77
2018-12-04T15:37:24.606Z,18.87
2018-12-04T15:39:52.537Z,15.33
2018-12-04T15:42:20.517Z,13.53
2018-12-04T15:44:48.092Z,14.83
2018-12-04T15:47:15.692Z,14.00
2018-12-04T15:49:43.288Z,15.27
2018-12-04T15:52:10.886Z,16.47
2018-12-04T15:54:38.746Z,13.17
2018-12-04T15:57:06.414Z,18.13
2018-12-04T15:59:34.072Z,13.73
2018-12-04T16:02:02.338Z,14.70
2018-12-04T16:04:30.044Z,14.57
2018-12-04T16:06:57.627Z,16.40
2018-12-04T16:09:25.334Z,14.60
2018-12-04T16:11:53.002Z,11.22
2018-12-04T16:14:20.588Z,15.93
2018-12-04T16:16:48.220Z,14.67
2018-12-04T16:19:15.920Z,19.70
2018-12-04T16:21:43.453Z,16.70
2018-12-04T16:24:11.066Z,17.92
2018-12-04T16:26:38.780Z,14.87
2018-12-04T16:29:06.404Z,18.98
2018-12-04T16:31:33.933Z,17.35
2018-12-04T16:34:01.686Z,17.73
2018-12-04T16:36:29.211Z,22.70
2018-12-04T16:38:57.107Z,17.80
2018-12-04T16:41:24.775Z,19.12
2018-12-04T16:43:52.451Z,25.62
2018-12-04T16:46:20.008Z,16.97
2018-12-04T16:48:47.891Z,22.87
2018-12-04T16:51:15.481Z,18.10
2018-12-04T16:53:43.165Z,20.15
2018-12-04T16:56:10.685Z,21.23
2018-12-04T16:58:38.400Z,17.07
2018-12-04T17:01:06.056Z,21.00
2018-12-04T17:03:33.618Z,21.57
2018-12-04T17:06:01.212Z,16.75
2018-12-04T17:08:29.009Z,21.40
2018-12-04T17:10:56.551Z,17.02
2018-12-04T17:13:24.229Z,17.77
2018-12-04T17:15:51.799Z,23.07
2018-12-04T17:18:19.320Z,24.30
2018-12-04T17:20:46.805Z,20.05
2018-12-04T17:23:14.375Z,19.40
2018-12-04T17:25:41.951Z,19.40
2018-12-04T17:28:09.625Z,20.15
2018-12-04T17:30:37.301Z,17.75
2018-12-04T17:33:05.085Z,19.30
2018-12-04T17:35:33.046Z,22.20
2018-12-04T17:38:00.746Z,18.60
2018-12-04T17:40:28.445Z,18.95
2018-12-04T17:42:56.052Z,24.92
2018-12-04T17:45:23.624Z,19.80
2018-12-04T17:47:51.160Z,26.12
2018-12-04T17:50:18.784Z,18.30
2018-12-04T17:52:46.519Z,17.77
2018-12-04T17:55:14.190Z,23.32
2018-12-04T17:57:41.621Z,20.17
2018-12-04T18:00:11.559Z,22.17
2018-12-04T18:02:39.107Z,18.15
2018-12-04T18:05:06.832Z,20.80
2018-12-04T18:07:34.341Z,19.67
2018-12-04T18:10:02.067Z,22.10
2018-12-04T18:12:29.811Z,21.33
2018-12-04T18:14:57.736Z,18.52
2018-12-04T18:17:25.323Z,20.80
2018-12-04T18:19:52.949Z,24.92
2018-12-04T18:22:21.100Z,19.73
2018-12-04T18:24:48.691Z,27.42
2018-12-04T18:27:16.357Z,25.12
2018-12-04T18:29:43.975Z,22.50
2018-12-04T18:32:11.537Z,27.40
2018-12-04T18:34:39.102Z,22.52
2018-12-04T18:37:06.708Z,19.10
2018-12-04T18:39:34.213Z,20.35
2018-12-04T18:42:01.760Z,22.27
2018-12-04T18:44:29.382Z,24.92
2018-12-04T18:46:57.077Z,21.48
2018-12-04T18:49:24.618Z,21.20
2018-12-04T18:51:52.197Z,15.72
2018-12-04T18:54:19.868Z,19.77
2018-12-04T18:56:47.395Z,21.52
2018-12-04T18:59:14.980Z,25.17
2018-12-04T19:01:42.447Z,16.93
2018-12-04T19:04:10.337Z,22.07
2018-12-04T19:06:37.932Z,16.12
2018-12-04T19:09:07.441Z,18.65
2018-12-04T19:11:35.163Z,19.73
2018-12-04T19:14:03.055Z,18.50
2018-12-04T19:16:30.735Z,21.30
2018-12-04T19:18:58.476Z,18.42
2018-12-04T19:21:25.999Z,16.62
2018-12-04T19:23:53.584Z,21.25
2018-12-04T19:26:21.060Z,23.50
2018-12-04T19:28:51.750Z,18.85
2018-12-04T19:31:19.319Z,17.45
2018-12-04T19:33:46.886Z,20.30
2018-12-04T19:36:14.534Z,26.95
2018-12-04T19:38:42.098Z,14.90
2018-12-04T19:41:09.659Z,27.60
2018-12-04T19:43:37.184Z,20.23
2018-12-04T19:46:04.878Z,19.20
2018-12-04T19:48:32.588Z,16.75
2018-12-04T19:51:00.119Z,21.93
2018-12-04T19:53:27.679Z,17.50
2018-12-04T19:55:55.241Z,21.62
2018-12-04T19:58:22.853Z,13.15
2018-12-04T20:00:50.573Z,26.10
2018-12-04T20:03:18.278Z,21.35
2018-12-04T20:08:31.876Z,29.07
2018-12-04T20:10:59.964Z,21.33
2018-12-04T20:13:27.652Z,20.68
2018-12-04T20:15:55.414Z,16.05
2018-12-04T20:18:22.950Z,20.43
2018-12-04T20:20:50.542Z,23.57
2018-12-04T20:23:24.990Z,18.23
2018-12-04T20:25:52.581Z,21.50
2018-12-04T20:28:20.256Z,25.75
2018-12-04T20:30:47.813Z,21.62
2018-12-04T20:33:15.416Z,24.40
2018-12-04T20:35:42.888Z,23.10
2018-12-04T20:38:10.445Z,22.95
2018-12-04T20:40:38.141Z,19.37
2018-12-04T20:43:05.744Z,21.60
2018-12-04T20:45:33.314Z,24.98
2018-12-04T20:48:00.923Z,18.75
2018-12-04T20:50:28.494Z,19.87
2018-12-04T20:52:56.006Z,23.85
2018-12-04T20:55:23.512Z,21.68
2018-12-04T20:57:51.206Z,35.25
2018-12-04T21:00:18.834Z,19.25
2018-12-04T21:02:46.686Z,25.70
2018-12-04T21:05:14.270Z,23.90
2018-12-04T21:07:41.836Z,21.73
2018-12-04T21:10:09.448Z,27.30
2018-12-04T21:12:36.964Z,30.20
2018-12-04T21:15:05.446Z,31.45
2018-12-04T21:17:33.056Z,26.12
2018-12-04T21:20:00.627Z,22.95
2018-12-04T21:22:28.238Z,25.08
2018-12-04T21:24:55.786Z,22.60
2018-12-04T21:27:29.217Z,24.45
2018-12-04T21:30:02.356Z,19.45
2018-12-04T21:32:35.768Z,20.10
2018-12-04T21:35:09.280Z,30.25
2018-12-04T21:37:42.702Z,26.75
2018-12-04T21:40:16.025Z,22.10
2018-12-04T21:44:51.591Z,22.32
2018-12-04T21:47:24.857Z,23.55
2018-12-04T21:49:52.532Z,27.52
2018-12-04T21:52:20.316Z,28.32
2018-12-04T21:54:47.816Z,25.52
2018-12-04T21:57:15.392Z,26.93
2018-12-04T21:59:43.313Z,18.80
2018-12-04T22:02:11.243Z,29.87
2018-12-04T22:04:38.977Z,28.80
2018-12-04T22:07:06.471Z,22.02
2018-12-04T22:09:34.798Z,27.17
2018-12-04T22:12:02.873Z,23.70
2018-12-04T22:14:30.573Z,22.37
2018-12-04T22:16:58.171Z,28.70
2018-12-04T22:19:25.815Z,30.32
2018-12-04T22:21:53.544Z,23.85
2018-12-04T22:24:21.251Z,24.12
2018-12-04T22:26:48.894Z,21.57
2018-12-04T22:29:16.429Z,25.40
2018-12-04T22:31:44.057Z,24.25
2018-12-04T22:34:11.633Z,24.23
2018-12-04T22:36:39.261Z,28.45
2018-12-04T22:39:08.772Z,23.85
2018-12-04T22:41:37.091Z,22.25
2018-12-04T22:44:04.928Z,26.35
2018-12-04T22:46:32.601Z,21.25
2018-12-04T22:49:00.354Z,25.90
2018-12-04T22:51:27.881Z,22.07
2018-12-04T22:53:55.670Z,25.48
2018-12-04T22:56:23.209Z,27.70
2018-12-04T22:58:50.925Z,23.77
2018-12-04T23:01:41.441Z,25.17
2018-12-04T23:04:09.384Z,24.18
2018-12-04T23:06:37.499Z,25.85
2018-12-04T23:09:09.637Z,24.32
2018-12-04T23:11:38.405Z,28.35
2018-12-04T23:14:06.443Z,23.25
2018-12-04T23:16:34.231Z,27.67
2018-12-04T23:19:02.011Z,22.82
2018-12-04T23:21:30.248Z,26.10
2018-12-04T23:23:57.985Z,24.70
2018-12-04T23:26:26.228Z,21.85
2018-12-04T23:28:57.097Z,21.73
2018-12-04T23:31:25.264Z,19.17
2018-12-04T23:33:54.054Z,24.80
2018-12-04T23:36:22.205Z,27.32
2018-12-04T23:38:49.998Z,26.45
2018-12-04T23:41:18.212Z,22.87
2018-12-04T23:43:45.820Z,25.08
2018-12-04T23:46:13.727Z,24.10
2018-12-04T23:48:41.508Z,24.05
2018-12-04T23:51:09.191Z,28.35
2018-12-04T23:53:36.797Z,25.43
2018-12-04T23:56:04.501Z,24.30
2018-12-04T23:58:32.072Z,27.02
